Portada
METAR-TAF:

METAR-TAF

Aeroports :

Xiamen, Xina

latitud: 24-29N, longitud: 118-05E, altitud: 139 m

Observació

L'informe es va fer fa 14 minuts, a les 07:00 UTC
Vent 8 kt del Sud-Oest, variant entre Sud i Oest/Sud-Oest
Temperatura 36°C
Humitat 53%
Pressió 1008 hPa
Visibilitat 10 km o més
Escasses núvols a una alçada de 4000 ft

METAR: ZSAM 200700Z 22004MPS 170V250 9999 FEW040 36/25 Q1008 NOSIG

Hora: 15:14 (07:14 UTC)

Pronòstic

L'informe es va fer fa 4 hores i 12 minuts, a les 03:02 UTC
Pronòstic vàlid del 20 a les 06 UTC al 21 a les 06 UTC
Vent 8 kt del Sud amb ràfegues de 17 kt
Visibilitat: 8000 m
Núvols disperses a una alçada de 2600 ft

TAF: ZSAM 200302Z 2006/2106 19004G09MPS 8000 SCT026 TX36/2006Z TN29/2021Z

Observacions i pronòstics meteorològics de més de 4000 aeroports (METAR i TAF).

Les estacions disponibles són els punts grocs i vermells al mapa.

Posi el ratolí al punt desitjat per veure el nom de l'estació.

Feu clic per veure les observacions i els pronòstics meteorològics.

Per canviar el mapa: feu clic els botons verds amb una creu de color negre per apropar; al botó verd amb un guió per allunyar la imatge; o en les fletxes verdes per a mapes adjacents.


METAR-TAF: